Time;durP1;ratioP1;P1;durP2;ratioP2;P2;SDS_P1;SDS_P2;PMS_P1;PMS_P2;Temp;Humidity;BMP_temperature;BMP_pressure;BME280_temperature;BME280_humidity;BME280_pressure;Samples;Min_cycle;Max_cycle;Signal;HPM_P1;HPM_P2
2021/06/21 00:03:49;;;;;;;3.50;2.23;;;20.80;99.90;;;;;;10496551;28;20225;-83
2021/06/21 00:08:53;;;;;;;5.23;2.13;;;20.70;99.90;;;;;;10510184;28;20228;-84
2021/06/21 00:13:55;;;;;;;4.67;1.93;;;20.80;99.90;;;;;;10506771;28;20242;-83
2021/06/21 00:18:57;;;;;;;3.67;2.20;;;20.80;99.90;;;;;;10475894;28;20274;-83
2021/06/21 00:24:01;;;;;;;3.80;1.73;;;20.80;99.90;;;;;;10503990;28;20308;-83
2021/06/21 00:29:03;;;;;;;3.33;1.90;;;20.80;99.90;;;;;;10503693;28;20643;-83
2021/06/21 00:34:05;;;;;;;3.10;2.07;;;20.80;99.90;;;;;;10489657;28;20200;-83
2021/06/21 00:39:09;;;;;;;3.83;2.47;;;20.90;99.90;;;;;;10450582;28;20250;-83
2021/06/21 00:44:12;;;;;;;7.60;2.00;;;20.90;99.90;;;;;;10476956;28;20270;-82
2021/06/21 00:49:14;;;;;;;6.30;2.13;;;20.90;99.90;;;;;;10469354;28;20267;-82
2021/06/21 00:54:17;;;;;;;4.50;1.90;;;20.90;99.90;;;;;;10477790;28;20258;-83
2021/06/21 00:59:19;;;;;;;7.90;2.80;;;21.00;99.90;;;;;;10450696;28;20715;-83
2021/06/21 01:04:22;;;;;;;5.10;2.17;;;20.90;99.90;;;;;;10468724;28;20220;-83
2021/06/21 01:09:29;;;;;;;7.10;2.83;;;20.80;99.90;;;;;;10462226;28;20228;-84
2021/06/21 01:14:38;;;;;;;6.13;1.93;;;20.70;99.90;;;;;;10460196;28;20197;-84
2021/06/21 01:20:24;;;;;;;7.07;2.40;;;20.60;99.90;;;;;;10473734;28;20232;-84
2021/06/21 01:25:33;;;;;;;7.03;3.10;;;20.60;99.90;;;;;;10481433;28;20224;-83
2021/06/21 01:30:52;;;;;;;4.60;2.60;;;20.60;99.90;;;;;;10478073;28;20229;-83
2021/06/21 01:36:01;;;;;;;8.03;2.63;;;20.50;99.90;;;;;;10486346;28;20193;-84
2021/06/21 01:41:09;;;;;;;5.90;2.10;;;20.50;99.90;;;;;;10481309;28;20250;-84
2021/06/21 01:46:14;;;;;;;8.10;2.10;;;20.60;99.90;;;;;;10487896;28;20228;-83
2021/06/21 01:51:18;;;;;;;8.87;2.90;;;20.70;99.90;;;;;;10473005;28;20205;-84
2021/06/21 01:56:24;;;;;;;3.80;1.70;;;20.70;99.90;;;;;;10459154;28;20608;-82
2021/06/21 02:01:27;;;;;;;3.40;2.00;;;20.70;99.90;;;;;;10491775;28;20192;-83
2021/06/21 02:06:33;;;;;;;3.50;1.93;;;20.70;99.90;;;;;;10494676;28;20225;-84
2021/06/21 02:11:35;;;;;;;5.40;2.43;;;20.70;99.90;;;;;;10472081;28;20215;-83
2021/06/21 02:16:39;;;;;;;6.27;2.47;;;20.60;99.90;;;;;;10491721;28;20220;-82
2021/06/21 02:21:43;;;;;;;5.27;2.37;;;20.50;99.90;;;;;;10477753;28;20205;-83
2021/06/21 02:26:47;;;;;;;11.03;2.70;;;20.60;99.90;;;;;;10480610;28;20232;-84
2021/06/21 02:31:51;;;;;;;9.93;3.00;;;20.50;99.90;;;;;;10478746;28;20831;-84
2021/06/21 02:36:54;;;;;;;8.10;2.10;;;20.50;99.90;;;;;;10476756;28;20255;-84
2021/06/21 02:41:56;;;;;;;2.90;1.90;;;20.50;99.90;;;;;;10480290;28;20567;-84
2021/06/21 02:46:59;;;;;;;5.73;2.27;;;20.50;99.90;;;;;;10482077;28;20252;-83
2021/06/21 02:52:06;;;;;;;15.20;2.90;;;20.40;99.90;;;;;;10474674;28;20213;-84
2021/06/21 02:57:15;;;;;;;6.27;2.47;;;20.40;99.90;;;;;;10441979;28;20221;-84
2021/06/21 03:02:20;;;;;;;9.73;2.83;;;20.50;99.90;;;;;;10464822;28;20923;-84
2021/06/21 03:07:25;;;;;;;4.83;2.60;;;20.40;99.90;;;;;;10485275;28;20291;-84
2021/06/21 03:12:30;;;;;;;5.43;2.60;;;20.40;99.90;;;;;;10498203;28;20197;-84
2021/06/21 03:17:35;;;;;;;6.13;2.60;;;20.40;99.90;;;;;;10476818;28;20246;-84
2021/06/21 03:22:39;;;;;;;9.50;2.60;;;20.50;99.90;;;;;;10474404;28;20213;-84
2021/06/21 03:27:42;;;;;;;4.90;2.87;;;20.50;99.90;;;;;;10487749;28;20579;-82
2021/06/21 03:32:45;;;;;;;5.87;2.07;;;20.50;99.90;;;;;;10480627;28;20235;-83
2021/06/21 03:37:49;;;;;;;10.27;2.90;;;20.50;99.90;;;;;;10444454;28;20696;-82
2021/06/21 03:42:51;;;;;;;6.83;2.60;;;20.50;99.90;;;;;;10460854;28;20228;-83
2021/06/21 03:47:53;;;;;;;10.40;3.60;;;20.50;99.90;;;;;;10482668;28;20272;-82
2021/06/21 03:52:57;;;;;;;4.13;2.20;;;20.50;99.90;;;;;;10463343;28;20193;-83
2021/06/21 03:57:59;;;;;;;4.73;2.17;;;20.60;99.90;;;;;;10462341;28;20270;-82
2021/06/21 04:03:03;;;;;;;8.83;3.20;;;20.60;99.90;;;;;;10477861;28;20914;-83
2021/06/21 04:08:07;;;;;;;12.97;2.30;;;20.60;99.90;;;;;;10472736;28;20275;-84
2021/06/21 04:13:10;;;;;;;3.60;1.90;;;20.70;99.90;;;;;;10449698;28;20201;-83
2021/06/21 04:18:14;;;;;;;4.90;2.10;;;20.70;99.90;;;;;;10452987;28;20233;-83
2021/06/21 04:23:20;;;;;;;6.23;2.60;;;20.70;99.90;;;;;;10476394;28;20209;-83
2021/06/21 04:28:25;;;;;;;7.37;3.27;;;20.80;99.90;;;;;;10470249;28;20248;-82
2021/06/21 04:33:27;;;;;;;7.60;3.27;;;20.80;99.90;;;;;;10455416;28;20224;-82
2021/06/21 04:38:31;;;;;;;3.90;2.50;;;20.80;99.90;;;;;;10487847;28;20232;-82
2021/06/21 04:43:33;;;;;;;8.80;2.40;;;20.80;99.90;;;;;;10484930;28;20634;-83
2021/06/21 04:48:35;;;;;;;4.23;3.17;;;20.70;99.90;;;;;;10493479;28;20235;-82
2021/06/21 04:53:38;;;;;;;3.87;2.63;;;20.70;99.90;;;;;;10488236;28;20587;-82
2021/06/21 04:58:41;;;;;;;4.27;2.50;;;20.70;99.90;;;;;;10455420;28;20264;-83
2021/06/21 05:03:43;;;;;;;7.70;2.83;;;20.60;99.90;;;;;;10484267;28;20566;-83
2021/06/21 05:08:46;;;;;;;3.13;2.20;;;20.60;99.90;;;;;;10501272;22;20319;-81
2021/06/21 05:13:48;;;;;;;10.80;2.53;;;20.60;99.90;;;;;;10477280;28;20185;-81
2021/06/21 05:18:50;;;;;;;3.90;2.40;;;20.60;99.90;;;;;;10475511;28;20248;-80
2021/06/21 05:23:54;;;;;;;5.20;2.67;;;20.60;99.90;;;;;;10451538;28;20676;-80
2021/06/21 05:28:56;;;;;;;5.50;2.60;;;20.70;99.90;;;;;;10469431;28;20225;-80
2021/06/21 05:33:58;;;;;;;7.90;2.80;;;20.70;99.90;;;;;;10460429;28;20224;-80
2021/06/21 05:39:02;;;;;;;4.53;2.20;;;20.80;99.90;;;;;;10443819;28;20258;-81
2021/06/21 05:44:04;;;;;;;4.97;2.50;;;20.90;99.90;;;;;;10457388;28;20243;-80
2021/06/21 05:49:07;;;;;;;3.57;2.17;;;20.90;99.90;;;;;;10458168;28;20213;-80
2021/06/21 05:54:10;;;;;;;8.27;3.20;;;21.00;99.90;;;;;;10458825;28;20232;-81
2021/06/21 05:59:12;;;;;;;5.00;2.40;;;21.00;99.90;;;;;;10459634;28;20578;-80
2021/06/21 06:04:15;;;;;;;7.70;2.37;;;21.30;99.90;;;;;;10459434;28;20225;-80
2021/06/21 06:09:18;;;;;;;7.40;2.40;;;21.50;99.90;;;;;;10458610;28;20762;-80
2021/06/21 06:14:20;;;;;;;7.60;3.13;;;21.50;99.90;;;;;;10442040;28;20664;-81
2021/06/21 06:19:23;;;;;;;7.37;2.20;;;21.50;99.90;;;;;;10459251;28;20304;-81
2021/06/21 06:24:26;;;;;;;6.20;2.43;;;21.50;99.90;;;;;;10440552;28;20320;-81
2021/06/21 06:29:30;;;;;;;4.13;2.50;;;21.60;99.90;;;;;;10448093;28;20260;-80
2021/06/21 06:34:32;;;;;;;4.57;3.27;;;21.60;99.90;;;;;;10447996;28;20233;-82
2021/06/21 06:39:35;;;;;;;5.30;2.10;;;21.70;99.90;;;;;;10432359;28;20780;-81
2021/06/21 06:44:38;;;;;;;3.47;2.40;;;21.90;99.90;;;;;;10447817;28;20288;-80
2021/06/21 06:49:40;;;;;;;3.37;2.63;;;22.10;99.90;;;;;;10430588;28;20229;-82
2021/06/21 06:56:57;;;;;;;3.67;3.33;;;22.30;99.90;;;;;;10464907;28;20198;-81
2021/06/21 07:00:13;;;;;;;7.50;2.47;;;22.60;99.90;;;;;;10430166;28;20228;-81
2021/06/21 07:05:15;;;;;;;4.60;2.50;;;22.80;99.90;;;;;;10447382;28;20231;-81
2021/06/21 07:10:19;;;;;;;4.30;2.30;;;23.00;99.90;;;;;;10464963;28;20288;-81
2021/06/21 07:15:21;;;;;;;5.23;2.70;;;23.20;99.90;;;;;;10464130;28;20243;-81
2021/06/21 07:20:23;;;;;;;5.63;2.57;;;23.50;99.90;;;;;;10446552;28;20255;-82
2021/06/21 07:25:27;;;;;;;2.53;2.17;;;23.90;99.90;;;;;;10465079;28;20285;-81
2021/06/21 07:30:29;;;;;;;4.33;1.93;;;24.20;99.90;;;;;;10447648;28;20457;-81
2021/06/21 07:35:31;;;;;;;3.60;2.73;;;24.40;99.90;;;;;;10464882;28;20201;-81
2021/06/21 07:40:35;;;;;;;3.47;2.00;;;24.60;99.90;;;;;;10462639;28;20225;-81
2021/06/21 07:45:37;;;;;;;2.83;2.47;;;25.00;99.90;;;;;;10435510;28;20308;-81
2021/06/21 07:50:39;;;;;;;3.27;1.90;;;25.50;99.90;;;;;;10427968;28;20244;-81
2021/06/21 07:55:43;;;;;;;3.63;2.10;;;26.20;99.90;;;;;;10461047;28;20201;-81
2021/06/21 08:00:46;;;;;;;4.40;2.47;;;26.90;99.90;;;;;;10443855;28;20248;-82
2021/06/21 08:05:50;;;;;;;2.53;1.70;;;27.50;99.70;;;;;;10445650;28;20705;-81
2021/06/21 08:10:53;;;;;;;4.23;2.00;;;28.00;97.10;;;;;;10442925;28;20235;-81
2021/06/21 08:15:55;;;;;;;1.83;1.73;;;28.40;95.60;;;;;;10463931;28;20197;-82
2021/06/21 08:20:59;;;;;;;3.00;2.57;;;28.90;92.90;;;;;;10463488;28;20308;-82
2021/06/21 08:26:03;;;;;;;3.33;2.00;;;29.30;91.90;;;;;;10444672;28;20225;-82
2021/06/21 08:31:05;;;;;;;1.60;1.50;;;29.80;90.60;;;;;;10442710;28;20643;-82
2021/06/21 08:36:08;;;;;;;3.70;2.17;;;30.20;85.20;;;;;;10452798;28;20220;-82
2021/06/21 08:41:12;;;;;;;5.83;3.00;;;30.40;81.50;;;;;;10444760;28;20225;-82
2021/06/21 08:46:16;;;;;;;2.40;1.60;;;30.70;81.50;;;;;;10460676;28;20225;-82
2021/06/21 08:51:18;;;;;;;1.63;1.50;;;30.70;79.20;;;;;;10446385;28;20204;-82
2021/06/21 08:56:22;;;;;;;4.53;2.30;;;30.50;76.60;;;;;;10460407;28;20189;-82
2021/06/21 09:01:24;;;;;;;1.60;1.50;;;30.40;76.90;;;;;;10461000;28;20197;-81
2021/06/21 09:06:26;;;;;;;3.80;2.37;;;30.60;77.20;;;;;;10459902;28;20704;-82
2021/06/21 09:11:57;;;;;;;2.57;2.10;;;31.00;73.70;;;;;;10459618;28;20201;-80
2021/06/21 09:17:00;;;;;;;4.23;2.23;;;31.60;74.00;;;;;;10457061;28;20689;-79
2021/06/21 09:22:03;;;;;;;2.70;1.93;;;31.90;70.90;;;;;;10450810;28;20553;-79
2021/06/21 09:27:07;;;;;;;2.77;2.00;;;32.00;71.40;;;;;;10456920;28;20256;-79
2021/06/21 09:32:09;;;;;;;2.60;2.00;;;31.90;69.60;;;;;;10438408;28;20205;-79
2021/06/21 09:37:13;;;;;;;3.30;1.80;;;31.90;64.10;;;;;;10439443;28;20227;-80
2021/06/21 09:42:22;;;;;;;2.03;1.93;;;32.40;63.00;;;;;;10438773;28;20215;-79
2021/06/21 09:47:27;;;;;;;5.07;2.00;;;33.40;62.80;;;;;;10449872;28;20251;-80
2021/06/21 09:52:34;;;;;;;2.43;2.10;;;34.90;58.90;;;;;;10456768;28;20227;-80
2021/06/21 09:57:38;;;;;;;1.47;1.37;;;36.30;56.20;;;;;;10456248;28;20221;-79
2021/06/21 10:02:41;;;;;;;3.55;1.85;;;37.60;51.90;;;;;;10462022;28;20284;-80
2021/06/21 10:07:43;;;;;;;2.15;1.95;;;39.10;49.10;;;;;;10446423;28;20248;-80
2021/06/21 10:12:48;;;;;;;2.53;2.28;;;40.40;48.70;;;;;;10456429;28;20209;-79
2021/06/21 10:17:50;;;;;;;4.28;2.20;;;41.60;44.40;;;;;;10462324;28;20247;-80
2021/06/21 10:22:52;;;;;;;2.05;1.90;;;41.70;44.30;;;;;;10476081;28;20638;-80
2021/06/21 10:27:58;;;;;;;2.90;2.00;;;41.70;43.70;;;;;;10475219;28;20305;-80
2021/06/21 10:33:02;;;;;;;2.20;2.00;;;39.60;43.70;;;;;;10459262;28;20232;-80
2021/06/21 10:38:06;;;;;;;2.20;2.00;;;37.40;46.40;;;;;;10427798;28;20220;-81
2021/06/21 10:43:10;;;;;;;1.90;1.80;;;35.70;49.60;;;;;;10444774;28;20204;-80
2021/06/21 10:48:15;;;;;;;2.47;2.33;;;34.00;50.50;;;;;;10443375;28;20327;-79
2021/06/21 10:53:18;;;;;;;3.17;2.30;;;32.70;53.80;;;;;;10443014;28;20205;-80
2021/06/21 10:58:46;;;;;;;2.10;2.00;;;31.80;53.30;;;;;;10460016;28;20244;-80
2021/06/21 11:03:48;;;;;;;4.20;2.30;;;30.90;54.50;;;;;;10458541;28;20197;-80
2021/06/21 11:08:54;;;;;;;2.27;2.00;;;30.20;56.40;;;;;;10441246;28;20312;-79
2021/06/21 11:14:08;;;;;;;2.87;1.87;;;29.70;57.00;;;;;;10458281;28;20613;-79
2021/06/21 11:19:34;;;;;;;1.70;1.60;;;29.20;58.60;;;;;;10423042;28;20260;-79
2021/06/21 11:24:53;;;;;;;2.10;1.90;;;28.90;58.60;;;;;;10457834;28;20590;-79
2021/06/21 11:30:01;;;;;;;2.47;2.27;;;28.60;61.40;;;;;;10466563;28;20271;-81
2021/06/21 11:35:04;;;;;;;2.57;2.30;;;28.50;63.50;;;;;;10445765;28;20193;-80
2021/06/21 11:40:28;;;;;;;2.60;1.90;;;28.40;59.30;;;;;;10464310;28;20225;-80
2021/06/21 11:50:59;;;;;;;2.63;2.43;;;28.40;62.70;;;;;;10682789;27;20375;-80
2021/06/21 11:56:01;;;;;;;2.60;2.17;;;28.60;63.60;;;;;;10666996;27;20193;-81
2021/06/21 12:01:16;;;;;;;2.30;2.10;;;28.70;58.80;;;;;;10665271;27;20313;-81
2021/06/21 12:06:20;;;;;;;2.60;2.33;;;28.80;60.90;;;;;;10646456;27;20248;-81
2021/06/21 12:11:24;;;;;;;2.30;2.10;;;28.80;64.70;;;;;;10647852;27;20202;-81
2021/06/21 12:16:28;;;;;;;2.50;2.10;;;28.70;66.20;;;;;;10666799;27;20186;-80
2021/06/21 12:21:34;;;;;;;2.47;2.27;;;28.60;65.30;;;;;;10625357;27;20210;-80
2021/06/21 12:26:37;;;;;;;4.23;2.00;;;28.50;62.60;;;;;;10655285;27;20226;-81
2021/06/21 12:31:50;;;;;;;3.03;2.33;;;28.40;65.40;;;;;;10658925;27;20296;-80
2021/06/21 12:36:54;;;;;;;3.70;2.37;;;28.40;62.60;;;;;;10639731;27;20206;-80
2021/06/21 12:41:57;;;;;;;2.43;2.23;;;28.40;62.70;;;;;;10662081;27;20194;-80
2021/06/21 12:46:59;;;;;;;2.27;2.17;;;28.50;61.60;;;;;;10650446;27;20527;-80
2021/06/21 12:52:03;;;;;;;2.03;1.90;;;28.40;61.50;;;;;;10629044;27;20202;-80
2021/06/21 12:57:06;;;;;;;2.30;2.10;;;28.30;63.70;;;;;;10656827;27;20218;-80
2021/06/21 13:02:18;;;;;;;2.97;2.23;;;28.20;63.90;;;;;;10624360;27;20661;-80
2021/06/21 13:07:25;;;;;;;2.60;2.00;;;28.10;66.20;;;;;;10606544;27;20317;-80
2021/06/21 13:12:29;;;;;;;3.57;2.90;;;28.00;66.80;;;;;;10631466;27;20198;-80
2021/06/21 13:17:32;;;;;;;5.83;2.50;;;27.90;64.10;;;;;;10629661;27;20225;-80
2021/06/21 13:22:37;;;;;;;2.37;2.27;;;27.90;63.70;;;;;;10611659;27;20191;-79
2021/06/21 13:27:48;;;;;;;2.33;2.23;;;28.00;66.60;;;;;;10598445;27;20248;-80
2021/06/21 13:32:51;;;;;;;2.80;2.27;;;28.20;64.00;;;;;;10576347;27;20198;-80
2021/06/21 13:37:56;;;;;;;4.40;2.40;;;28.30;65.50;;;;;;10596747;27;20237;-80
2021/06/21 13:42:59;;;;;;;4.20;2.53;;;28.30;63.90;;;;;;10607584;27;20289;-81
2021/06/21 13:48:06;;;;;;;2.03;1.93;;;28.20;62.80;;;;;;10610416;27;20639;-80
2021/06/21 13:53:25;;;;;;;3.57;2.63;;;28.20;63.00;;;;;;10612586;27;20202;-80
2021/06/21 13:58:32;;;;;;;5.33;2.50;;;28.10;64.30;;;;;;10624849;27;20308;-80
2021/06/21 14:03:34;;;;;;;4.10;2.10;;;28.10;70.70;;;;;;10631794;27;20212;-80
2021/06/21 14:08:38;;;;;;;3.23;2.00;;;28.00;67.50;;;;;;10613415;27;20230;-80
2021/06/21 14:13:41;;;;;;;3.90;2.20;;;28.00;69.20;;;;;;10630160;27;20247;-80
2021/06/21 14:18:43;;;;;;;2.27;1.90;;;28.10;66.20;;;;;;10632822;27;20210;-80
2021/06/21 14:23:48;;;;;;;3.13;2.27;;;28.00;64.90;;;;;;10633632;27;20202;-80
2021/06/21 14:28:51;;;;;;;3.40;2.07;;;27.70;68.90;;;;;;10628552;27;20285;-80
2021/06/21 14:33:53;;;;;;;2.17;2.00;;;27.50;65.60;;;;;;10631212;27;20198;-80
2021/06/21 14:38:57;;;;;;;4.40;2.83;;;27.40;69.00;;;;;;10624332;27;20224;-80
2021/06/21 14:44:01;;;;;;;2.90;2.17;;;27.40;70.50;;;;;;10626861;27;20199;-82
2021/06/21 14:49:04;;;;;;;2.73;2.50;;;27.40;70.40;;;;;;10616075;27;20774;-81
2021/06/21 14:54:08;;;;;;;2.13;2.03;;;27.30;74.00;;;;;;10627398;27;20206;-82
2021/06/21 14:59:10;;;;;;;2.40;2.20;;;27.10;70.30;;;;;;10626306;27;20241;-82
2021/06/21 15:04:12;;;;;;;2.27;2.07;;;27.00;71.70;;;;;;10614688;27;20213;-82
2021/06/21 15:09:16;;;;;;;2.20;2.03;;;27.00;68.20;;;;;;10598805;27;20679;-80
2021/06/21 15:14:18;;;;;;;2.30;2.00;;;27.00;67.40;;;;;;10593514;27;20199;-80
2021/06/21 15:40:39;;;;;;;2.53;2.27;;;27.30;67.30;;;;;;10370198;28;20234;-81
2021/06/21 16:00:37;;;;;;;2.40;2.20;;;26.90;71.90;;;;;;10360343;28;20232;-80
2021/06/21 16:06:07;;;;;;;2.27;2.07;;;26.80;70.40;;;;;;10440656;28;20292;-80
2021/06/21 16:11:09;;;;;;;2.77;2.50;;;26.80;68.50;;;;;;10462289;28;20220;-80
2021/06/21 16:16:11;;;;;;;2.47;2.33;;;26.80;69.50;;;;;;10443788;28;20220;-80
2021/06/21 16:21:15;;;;;;;3.53;2.63;;;26.70;72.90;;;;;;10427990;28;20225;-80
2021/06/21 16:26:17;;;;;;;3.60;2.40;;;26.60;70.30;;;;;;10462694;28;20224;-79
2021/06/21 16:31:19;;;;;;;2.57;2.23;;;26.60;71.60;;;;;;10462014;28;20277;-79
2021/06/21 16:36:23;;;;;;;2.30;2.20;;;26.50;71.60;;;;;;10449171;28;20255;-79
2021/06/21 16:41:25;;;;;;;3.07;2.87;;;26.50;72.30;;;;;;10468447;28;20256;-80
2021/06/21 16:46:27;;;;;;;4.20;1.90;;;26.60;74.20;;;;;;10466071;28;20258;-80
2021/06/21 16:51:30;;;;;;;2.87;2.37;;;26.60;72.40;;;;;;10447642;28;20244;-80
2021/06/21 16:56:32;;;;;;;2.73;2.40;;;26.50;71.70;;;;;;10449686;28;20280;-80
2021/06/21 17:01:35;;;;;;;2.83;2.23;;;26.50;72.50;;;;;;10450599;28;20193;-80
2021/06/21 17:17:08;;;;;;;1.60;1.50;;;26.60;70.70;;;;;;10541607;28;20234;-82
2021/06/21 17:22:11;;;;;;;2.73;2.50;;;26.60;72.80;;;;;;10549761;28;20272;-83
2021/06/21 17:27:13;;;;;;;2.23;1.73;;;26.60;72.80;;;;;;10562657;28;20226;-82
2021/06/21 17:37:47;;;;;;;3.13;2.33;;;26.40;70.70;;;;;;10586910;28;20792;-82
2021/06/21 17:42:56;;;;;;;2.43;2.30;;;26.30;73.00;;;;;;10537260;28;20211;-82
2021/06/21 17:47:59;;;;;;;3.13;2.87;;;26.20;70.40;;;;;;10531179;28;20230;-83
2021/06/21 17:53:02;;;;;;;2.53;2.33;;;26.20;75.20;;;;;;10553880;28;20203;-81
2021/06/21 17:58:05;;;;;;;2.70;2.50;;;26.20;71.00;;;;;;10550511;28;20224;-82
2021/06/21 18:03:10;;;;;;;2.50;2.30;;;26.10;71.60;;;;;;10548638;28;20203;-80
2021/06/21 18:08:13;;;;;;;2.80;2.70;;;26.00;70.00;;;;;;10573048;28;20234;-83
2021/06/21 18:13:15;;;;;;;2.80;2.60;;;26.00;71.40;;;;;;10531613;28;20639;-83
2021/06/21 18:18:19;;;;;;;3.10;2.90;;;25.90;71.60;;;;;;10562086;28;20236;-82
2021/06/21 18:23:21;;;;;;;3.50;3.30;;;25.90;74.10;;;;;;10555390;28;20235;-83
2021/06/21 18:28:34;;;;;;;4.87;4.43;;;25.90;80.30;;;;;;10543414;28;20215;-83
2021/06/21 18:33:44;;;;;;;3.40;3.20;;;25.80;83.90;;;;;;10533688;28;20204;-81
2021/06/21 18:38:48;;;;;;;2.97;2.77;;;25.80;74.60;;;;;;10533306;28;20733;-82
2021/06/21 18:43:53;;;;;;;3.20;3.10;;;25.70;79.70;;;;;;10572149;28;20221;-81
2021/06/21 18:48:59;;;;;;;3.73;3.43;;;25.70;84.70;;;;;;10554489;28;20254;-79
2021/06/21 18:54:04;;;;;;;6.00;3.33;;;25.60;88.10;;;;;;10570614;28;20199;-82
2021/06/21 18:59:06;;;;;;;4.70;3.93;;;25.50;88.80;;;;;;10537905;28;20253;-82
2021/06/21 19:04:09;;;;;;;6.63;6.03;;;25.10;92.60;;;;;;10541456;28;20192;-83
2021/06/21 19:09:12;;;;;;;7.23;6.53;;;24.30;95.00;;;;;;10522700;28;20223;-83
2021/06/21 19:14:14;;;;;;;7.10;6.37;;;23.50;99.90;;;;;;10547394;28;20211;-83
2021/06/21 19:19:19;;;;;;;11.03;7.07;;;22.90;99.90;;;;;;10535791;28;20227;-82
2021/06/21 19:24:21;;;;;;;7.50;6.87;;;22.40;99.90;;;;;;10524747;28;20218;-82
2021/06/21 19:29:23;;;;;;;8.10;7.50;;;22.00;99.90;;;;;;10530072;28;20266;-81
2021/06/21 19:34:27;;;;;;;8.07;7.57;;;21.70;99.90;;;;;;10510580;28;20232;-81
2021/06/21 19:39:29;;;;;;;9.03;8.33;;;21.40;99.90;;;;;;10513433;28;20211;-83
2021/06/21 19:44:32;;;;;;;9.23;8.43;;;21.20;99.90;;;;;;10538552;28;20203;-83
2021/06/21 19:49:36;;;;;;;9.57;8.73;;;21.00;99.90;;;;;;10520696;28;20751;-83
2021/06/21 19:54:38;;;;;;;10.13;9.20;;;20.90;99.90;;;;;;10486820;28;20208;-83
2021/06/21 19:59:45;;;;;;;13.60;12.70;;;20.70;99.90;;;;;;10493218;28;20226;-83
2021/06/21 20:04:48;;;;;;;12.53;11.63;;;20.50;99.90;;;;;;10501858;28;20278;-82
2021/06/21 20:09:51;;;;;;;11.50;10.80;;;20.50;99.90;;;;;;10531444;28;20250;-83
2021/06/21 20:14:53;;;;;;;11.20;10.50;;;20.60;99.90;;;;;;10521234;28;20212;-83
2021/06/21 20:19:57;;;;;;;11.53;10.60;;;20.60;99.90;;;;;;10555561;28;20215;-83
2021/06/21 20:24:59;;;;;;;10.53;9.70;;;20.70;99.90;;;;;;10488828;28;20203;-83
2021/06/21 20:30:01;;;;;;;9.50;8.90;;;20.80;99.90;;;;;;10525275;28;20303;-83
2021/06/21 20:35:10;;;;;;;10.23;8.50;;;20.80;99.90;;;;;;10548702;28;20951;-83
2021/06/21 20:40:13;;;;;;;9.13;8.63;;;20.80;99.90;;;;;;10525838;28;20213;-83
2021/06/21 20:45:15;;;;;;;9.13;8.53;;;20.70;99.90;;;;;;10530417;28;20196;-82
2021/06/21 20:50:25;;;;;;;10.00;9.00;;;20.80;99.90;;;;;;10571939;28;20216;-83
2021/06/21 20:55:29;;;;;;;8.60;7.77;;;20.80;99.90;;;;;;10545513;28;20192;-81
2021/06/21 21:00:35;;;;;;;9.00;8.40;;;20.80;99.90;;;;;;10574832;28;20797;-82
2021/06/21 21:05:39;;;;;;;8.77;8.07;;;20.80;99.90;;;;;;10536140;28;20211;-83
2021/06/21 21:10:42;;;;;;;8.80;8.10;;;20.80;99.90;;;;;;10570996;28;20215;-82
2021/06/21 21:15:45;;;;;;;7.90;7.30;;;20.90;99.90;;;;;;10533551;28;20726;-82
2021/06/21 21:20:49;;;;;;;6.67;6.07;;;21.00;99.90;;;;;;10499806;28;20227;-82
2021/06/21 21:25:51;;;;;;;6.20;5.60;;;21.00;99.90;;;;;;10528137;28;20204;-82
2021/06/21 21:30:53;;;;;;;5.37;4.90;;;21.00;99.90;;;;;;10517288;28;20205;-82
2021/06/21 21:35:57;;;;;;;5.57;5.07;;;21.00;99.90;;;;;;10557178;28;20218;-82
2021/06/21 21:40:59;;;;;;;5.37;4.97;;;21.00;99.90;;;;;;10532836;28;20223;-82
2021/06/21 21:46:01;;;;;;;5.67;4.60;;;21.10;99.90;;;;;;10556038;28;20206;-82
2021/06/21 21:51:05;;;;;;;4.90;4.60;;;21.00;99.90;;;;;;10510116;28;20204;-83
2021/06/21 21:56:19;;;;;;;4.40;4.20;;;21.00;99.90;;;;;;10517067;28;20223;-83
2021/06/21 22:01:22;;;;;;;5.27;3.70;;;20.90;99.90;;;;;;10508081;28;20208;-83
2021/06/21 22:06:26;;;;;;;3.53;3.30;;;20.80;99.90;;;;;;10494666;28;20224;-82
2021/06/21 22:11:28;;;;;;;4.47;3.53;;;20.70;99.90;;;;;;10541209;28;20227;-82
2021/06/21 22:16:31;;;;;;;4.20;3.80;;;20.70;99.90;;;;;;10555629;28;20236;-81
2021/06/21 22:21:34;;;;;;;4.00;3.70;;;20.70;99.90;;;;;;10531943;28;20216;-82
2021/06/21 22:26:38;;;;;;;4.03;3.60;;;20.70;99.90;;;;;;10570507;28;20207;-82
2021/06/21 22:31:40;;;;;;;4.00;3.70;;;20.80;99.90;;;;;;10542353;28;20223;-82
2021/06/21 22:36:43;;;;;;;4.00;3.73;;;20.70;99.90;;;;;;10487368;28;20200;-82
2021/06/21 22:42:14;;;;;;;4.67;4.20;;;20.70;99.90;;;;;;10525284;28;20656;-82
2021/06/21 22:47:17;;;;;;;4.40;4.00;;;20.70;99.90;;;;;;10484286;28;20226;-82
2021/06/21 22:52:21;;;;;;;4.10;3.80;;;20.70;99.90;;;;;;10554667;28;20273;-81
2021/06/21 22:57:23;;;;;;;4.87;3.97;;;20.80;99.90;;;;;;10537026;28;20221;-81
2021/06/21 23:07:49;;;;;;;3.87;3.57;;;20.90;99.90;;;;;;10508868;22;20220;-79
2021/06/21 23:12:52;;;;;;;5.10;4.60;;;20.90;99.90;;;;;;10513286;28;20690;-80
2021/06/21 23:17:55;;;;;;;3.63;3.40;;;21.00;99.90;;;;;;10504295;28;20220;-79
2021/06/21 23:22:58;;;;;;;4.10;3.73;;;21.00;99.90;;;;;;10504933;28;20185;-79
2021/06/21 23:28:00;;;;;;;3.70;3.40;;;21.00;99.90;;;;;;10511211;28;20247;-79
2021/06/21 23:33:02;;;;;;;3.90;3.70;;;21.00;99.90;;;;;;10520631;28;20222;-79
2021/06/21 23:38:07;;;;;;;3.90;3.57;;;21.00;99.90;;;;;;10520808;28;20223;-79
2021/06/21 23:43:09;;;;;;;4.13;3.80;;;21.00;99.90;;;;;;10530370;28;20227;-79
2021/06/21 23:48:12;;;;;;;4.83;4.17;;;21.00;99.90;;;;;;10528701;28;20362;-79
2021/06/21 23:53:15;;;;;;;4.60;4.30;;;20.90;99.90;;;;;;10527545;28;20199;-79
2021/06/21 23:58:17;;;;;;;4.00;3.70;;;21.00;99.90;;;;;;10528228;28;20657;-79
